• Join FlightAware (Why Join?)
  • Login
  • US Flag 
Rudolph Flight #1: Arrived! 
01:31AM EST


 

Airport Tracker/Info


-or-


 

Live Flight TrackerFlight Track Log ✈ EJA951 ✈ 16-Jul-2013 ✈ KTEB - KRIC

Flight Track Log - Related Links

Times and Time Zones

All times are in EDT time to prevent confusion due to time zone crossing. See the EJA951 flight status page for this flight to view local times or setup timezone preferences in your user account.

Time Position Orientation Groundspeed Altitude Reporting Facility
EDT Latitude Longitude Course Direction KTS MPH feet Rate Location/Type
06:48AM 40.8833 -74.0500 323° Northwest 171 197 2,000  Level New York TRACON
06:49AM 40.9167 -74.0833 323° Northwest 225 259 4,300 2,040 Climbing New York TRACON
06:50AM 40.8500 -74.1167 201° Southwest 244 281 6,100 900 Climbing New York TRACON
06:51AM 40.7833 -74.1500 201° Southwest 287 330 6,100 1,320 Level New York TRACON
06:53AM 40.6497 -74.2611 212° Southwest 304 350 10,100 2,340 Climbing New York Center
06:54AM 40.5689 -74.3144 207° Southwest 304 350 13,200 2,100 Climbing New York Center
06:55AM 40.4817 -74.3072 176° South 304 350 14,400 1,260 Climbing New York Center
06:56AM 40.3653 -74.2958 176° South 368 423 15,800 1,320 Climbing New York Center
06:57AM 40.2675 -74.2853 175° South 394 453 17,200 1,380 Climbing New York Center
06:58AM 40.1431 -74.2683 174° South 406 467 18,600 1,320 Climbing New York Center
06:59AM 39.9731 -74.2786 183° South 431 496 20,600 1,320 Climbing Washington Center
07:00AM 39.8844 -74.3828 222° Southwest 405 466 22,100 1,380 Climbing Washington Center
07:01AM 39.7981 -74.4950 225° Southwest 418 481 23,400 1,560 Climbing Washington Center
07:02AM 39.7094 -74.6042 223° Southwest 439 505 25,300 1,860 Climbing Washington Center
07:03AM 39.6206 -74.7133 223° Southwest 439 505 27,200 1,320 Climbing Washington Center
07:04AM 39.5319 -74.8275 225° Southwest 449 517 28,000 360 Climbing Washington Center
07:05AM 39.4367 -74.9467 224° Southwest 466 536 28,000  Level Washington Center
07:06AM 39.3331 -75.0736 223° Southwest 493 567 28,000  Level Washington Center
07:07AM 39.2064 -75.1550 206° Southwest 503 579 28,000  Level Washington Center
07:08AM 39.0711 -75.2092 197° South 508 585 28,000  Level Washington Center
07:09AM 38.9358 -75.2686 199° South 514 592 28,000  Level Washington Center
07:10AM 38.7983 -75.3225 197° South 519 597 28,000  Level Washington Center
07:11AM 38.6608 -75.3789 198° South 519 597 28,000  Level Washington Center
07:12AM 38.5233 -75.4406 199° South 519 597 28,000  Level Washington Center
07:13AM 38.3836 -75.4964 197° South 519 597 28,000 -180 Level Washington Center
07:14AM 38.2525 -75.5681 203° Southwest 519 597 27,700 -1,380 Descending Washington Center
07:15AM 38.1211 -75.6444 205° Southwest 519 597 25,300 -2,520 Descending Washington Center
07:16AM 37.9958 -75.7314 209° Southwest 496 571 22,700 -2,400 Descending Washington Center
07:17AM 37.8811 -75.8050 207° Southwest 473 544 20,600 -1,980 Descending Washington Center
07:18AM 37.8247 -75.8364 204° Southwest 451 519 19,700 -2,100 Descending Washington Center
07:18AM 37.7661 -75.8703 205° Southwest 467 537 18,500 -2,280 Descending Washington Center
07:19AM 37.6533 -75.9406 206° Southwest 461 531 16,300 -1,680 Descending Washington Center
07:20AM 37.5928 -75.9639 197° South 456 525 16,000 -240 Descending Washington Center
07:21AM 37.4675 -75.9869 188° South 440 506 16,000 -360 Level Washington Center
07:22AM 37.3631 -76.0778 215° Southwest 449 517 15,300 -1,320 Descending Washington Center
07:23AM 37.3458 -76.1981 260° West 420 483 13,500 -2,100 Descending Washington Center
07:23AM 37.3411 -76.2764 266° West 374 430 12,300 -2,040 Descending Washington Center
07:24AM 37.3403 -76.3989 270° West 369 425 10,400 -1,740 Descending Washington Center
07:25AM 37.3375 -76.5086 268° West 340 391 8,900 -1,200 Descending Washington Center
07:26AM 37.3367 -76.6053 269° West 307 353 8,000 -480 Descending Washington Center
07:27AM 37.3358 -76.7047 269° West 289 333 8,000 -600 Level Washington Center
07:30AM 37.3500 -76.9500 274° West 281 323 6,000 -780 Descending Potomac TRACON
07:31AM 37.3667 -77.0333 284° West 282 325 5,500 -840 Descending Potomac TRACON
07:32AM 37.3833 -77.1333 282° West 255 293 4,400 -1,200 Descending Potomac TRACON
07:33AM 37.3833 -77.2167 270° West 236 272 3,200 -1,200 Descending Potomac TRACON
07:33AM 37.4000 -77.2833 287° West 228 262 2,200 -840 Descending Potomac TRACON
07:35AM 37.4333 -77.3333 310° West 185 213 1,600 -720 Descending Potomac TRACON
07:35AM 37.4667 -77.3333 360° North 120 138 800 -900 Descending Potomac TRACON
07:37AM 37.5000 -77.3167 322° Northwest  Level FlightAware Approximate
07:44AM 37.5052 -77.3197 322° Northwest  Level Estimated
07:45AM 37.5000 -77.3167 322° Northwest  Level FlightAware Approximate
07:46AM 37.5052 -77.3197 322° Northwest  Level Estimated
07:47AM 37.5000 -77.3167 322° Northwest  Level FlightAware Approximate
07:48AM 37.5052 -77.3197 322° Northwest  Level Estimated